Terminal Aerodrome Forecast
Issued by NWS Charleston, WV

Current Version | Previous Version | Text Only | Print | Product List | Glossary Off
Versions: 1 2 3 4 5 6 7 8 9 10 11 12 13 14 15 16 17 18 19 20 21

000
FTUS41 KRLX 010900 AAA
TAFBKW
TAF AMD
KBKW 010901Z 0109/0206 15005KT P6SM BKN250
     FM011300 13005KT P6SM BKN025
     FM011400 13006KT P6SM SHRA BKN025
     FM011800 13010G15KT P6SM BKN025
     FM012300 12006KT P6SM BKN040=

USA.gov is the U.S. government's official web portal to all federal, state and local government web resources and services.